sensor_id;sensor_type;location;lat;lon;timestamp;P1;durP1;ratioP1;P2;durP2;ratioP2
21183;SDS011;18176;49.502;11.754;2023-05-07T00:02:18;2.90;;;2.60;;
21183;SDS011;18176;49.502;11.754;2023-05-07T00:06:19;3.67;;;3.00;;
21183;SDS011;18176;49.502;11.754;2023-05-07T00:10:20;6.17;;;3.00;;
21183;SDS011;18176;49.502;11.754;2023-05-07T00:14:21;4.47;;;2.97;;
21183;SDS011;18176;49.502;11.754;2023-05-07T00:18:24;6.03;;;3.37;;
21183;SDS011;18176;49.502;11.754;2023-05-07T00:22:25;4.93;;;3.53;;
21183;SDS011;18176;49.502;11.754;2023-05-07T00:26:26;7.67;;;3.80;;
21183;SDS011;18176;49.502;11.754;2023-05-07T00:30:26;5.23;;;3.60;;
21183;SDS011;18176;49.502;11.754;2023-05-07T00:34:30;5.50;;;3.80;;
21183;SDS011;18176;49.502;11.754;2023-05-07T00:38:31;5.13;;;4.00;;
21183;SDS011;18176;49.502;11.754;2023-05-07T00:42:31;6.73;;;4.20;;
21183;SDS011;18176;49.502;11.754;2023-05-07T00:46:31;4.10;;;3.67;;
21183;SDS011;18176;49.502;11.754;2023-05-07T00:50:35;6.33;;;4.10;;
21183;SDS011;18176;49.502;11.754;2023-05-07T00:54:36;6.10;;;4.37;;
21183;SDS011;18176;49.502;11.754;2023-05-07T00:58:39;5.93;;;4.40;;
21183;SDS011;18176;49.502;11.754;2023-05-07T01:02:40;6.23;;;5.00;;
21183;SDS011;18176;49.502;11.754;2023-05-07T01:06:44;6.57;;;5.80;;
21183;SDS011;18176;49.502;11.754;2023-05-07T01:10:46;5.73;;;5.20;;
21183;SDS011;18176;49.502;11.754;2023-05-07T01:14:46;7.97;;;5.20;;
21183;SDS011;18176;49.502;11.754;2023-05-07T01:18:47;8.07;;;5.40;;
21183;SDS011;18176;49.502;11.754;2023-05-07T01:22:51;7.43;;;5.80;;
21183;SDS011;18176;49.502;11.754;2023-05-07T01:26:52;8.93;;;6.43;;
21183;SDS011;18176;49.502;11.754;2023-05-07T01:30:54;8.83;;;5.87;;
21183;SDS011;18176;49.502;11.754;2023-05-07T01:35:00;9.37;;;6.10;;
21183;SDS011;18176;49.502;11.754;2023-05-07T01:39:07;6.10;;;5.40;;
21183;SDS011;18176;49.502;11.754;2023-05-07T01:43:09;7.90;;;6.13;;
21183;SDS011;18176;49.502;11.754;2023-05-07T01:47:10;11.50;;;7.27;;
21183;SDS011;18176;49.502;11.754;2023-05-07T01:51:13;8.17;;;6.97;;
21183;SDS011;18176;49.502;11.754;2023-05-07T01:55:15;11.73;;;7.50;;
21183;SDS011;18176;49.502;11.754;2023-05-07T01:59:16;12.30;;;8.10;;
21183;SDS011;18176;49.502;11.754;2023-05-07T02:03:16;11.93;;;7.90;;
21183;SDS011;18176;49.502;11.754;2023-05-07T02:07:26;11.77;;;7.40;;
21183;SDS011;18176;49.502;11.754;2023-05-07T02:11:29;9.73;;;7.30;;
21183;SDS011;18176;49.502;11.754;2023-05-07T02:15:30;11.33;;;8.40;;
21183;SDS011;18176;49.502;11.754;2023-05-07T02:19:32;9.87;;;8.27;;
21183;SDS011;18176;49.502;11.754;2023-05-07T02:23:32;14.67;;;8.27;;
21183;SDS011;18176;49.502;11.754;2023-05-07T02:27:35;13.30;;;8.50;;
21183;SDS011;18176;49.502;11.754;2023-05-07T02:31:35;12.30;;;7.80;;
21183;SDS011;18176;49.502;11.754;2023-05-07T02:35:36;9.80;;;7.87;;
21183;SDS011;18176;49.502;11.754;2023-05-07T02:39:36;9.07;;;7.60;;
21183;SDS011;18176;49.502;11.754;2023-05-07T02:43:40;10.13;;;7.37;;
21183;SDS011;18176;49.502;11.754;2023-05-07T02:47:41;9.23;;;7.77;;
21183;SDS011;18176;49.502;11.754;2023-05-07T02:51:41;8.43;;;7.53;;
21183;SDS011;18176;49.502;11.754;2023-05-07T02:55:48;9.53;;;7.30;;
21183;SDS011;18176;49.502;11.754;2023-05-07T02:59:51;13.57;;;8.10;;
21183;SDS011;18176;49.502;11.754;2023-05-07T03:03:51;11.53;;;7.70;;
21183;SDS011;18176;49.502;11.754;2023-05-07T03:07:52;11.73;;;7.67;;
21183;SDS011;18176;49.502;11.754;2023-05-07T03:11:52;9.00;;;7.20;;
21183;SDS011;18176;49.502;11.754;2023-05-07T03:15:58;8.30;;;6.83;;
21183;SDS011;18176;49.502;11.754;2023-05-07T03:19:59;7.87;;;6.83;;
21183;SDS011;18176;49.502;11.754;2023-05-07T03:24:01;11.77;;;8.30;;
21183;SDS011;18176;49.502;11.754;2023-05-07T03:28:01;11.20;;;8.67;;
21183;SDS011;18176;49.502;11.754;2023-05-07T03:32:25;16.13;;;10.60;;
21183;SDS011;18176;49.502;11.754;2023-05-07T03:36:26;17.60;;;11.50;;
21183;SDS011;18176;49.502;11.754;2023-05-07T03:40:26;13.57;;;10.77;;
21183;SDS011;18176;49.502;11.754;2023-05-07T03:44:27;12.27;;;10.03;;
21183;SDS011;18176;49.502;11.754;2023-05-07T03:48:31;13.10;;;10.47;;
21183;SDS011;18176;49.502;11.754;2023-05-07T03:52:32;12.43;;;9.83;;
21183;SDS011;18176;49.502;11.754;2023-05-07T03:56:34;12.03;;;10.07;;
21183;SDS011;18176;49.502;11.754;2023-05-07T04:00:34;13.53;;;10.90;;
21183;SDS011;18176;49.502;11.754;2023-05-07T04:05:05;14.80;;;10.90;;
21183;SDS011;18176;49.502;11.754;2023-05-07T04:09:08;14.93;;;10.80;;
21183;SDS011;18176;49.502;11.754;2023-05-07T04:13:09;12.17;;;9.17;;
21183;SDS011;18176;49.502;11.754;2023-05-07T04:17:10;11.73;;;8.77;;
21183;SDS011;18176;49.502;11.754;2023-05-07T04:21:17;11.50;;;9.50;;
21183;SDS011;18176;49.502;11.754;2023-05-07T04:25:20;11.77;;;9.20;;
21183;SDS011;18176;49.502;11.754;2023-05-07T04:29:29;10.50;;;8.93;;
21183;SDS011;18176;49.502;11.754;2023-05-07T04:33:31;10.50;;;8.50;;
21183;SDS011;18176;49.502;11.754;2023-05-07T04:37:36;10.13;;;8.63;;
21183;SDS011;18176;49.502;11.754;2023-05-07T04:41:37;12.90;;;9.73;;
21183;SDS011;18176;49.502;11.754;2023-05-07T04:45:38;13.93;;;10.77;;
21183;SDS011;18176;49.502;11.754;2023-05-07T04:49:38;13.63;;;10.43;;
21183;SDS011;18176;49.502;11.754;2023-05-07T04:53:43;15.03;;;11.30;;
21183;SDS011;18176;49.502;11.754;2023-05-07T04:57:43;13.33;;;10.63;;
21183;SDS011;18176;49.502;11.754;2023-05-07T05:01:45;14.27;;;11.00;;
21183;SDS011;18176;49.502;11.754;2023-05-07T05:05:45;13.00;;;11.00;;
21183;SDS011;18176;49.502;11.754;2023-05-07T05:09:52;17.60;;;11.53;;
21183;SDS011;18176;49.502;11.754;2023-05-07T05:13:54;15.87;;;11.73;;
21183;SDS011;18176;49.502;11.754;2023-05-07T05:17:55;16.47;;;11.37;;
21183;SDS011;18176;49.502;11.754;2023-05-07T05:21:55;13.43;;;10.43;;
21183;SDS011;18176;49.502;11.754;2023-05-07T05:26:01;16.37;;;10.73;;
21183;SDS011;18176;49.502;11.754;2023-05-07T05:30:03;12.93;;;10.90;;
21183;SDS011;18176;49.502;11.754;2023-05-07T05:34:06;13.33;;;10.83;;
21183;SDS011;18176;49.502;11.754;2023-05-07T05:38:07;13.63;;;10.47;;
21183;SDS011;18176;49.502;11.754;2023-05-07T05:42:12;14.47;;;11.83;;
21183;SDS011;18176;49.502;11.754;2023-05-07T05:46:13;19.90;;;12.80;;
21183;SDS011;18176;49.502;11.754;2023-05-07T05:50:15;17.10;;;12.40;;
21183;SDS011;18176;49.502;11.754;2023-05-07T05:54:18;14.97;;;12.50;;
21183;SDS011;18176;49.502;11.754;2023-05-07T05:58:22;14.87;;;12.77;;
21183;SDS011;18176;49.502;11.754;2023-05-07T06:02:28;17.33;;;13.33;;
21183;SDS011;18176;49.502;11.754;2023-05-07T06:06:30;18.17;;;13.17;;
21183;SDS011;18176;49.502;11.754;2023-05-07T06:10:32;16.70;;;12.60;;
21183;SDS011;18176;49.502;11.754;2023-05-07T06:14:36;14.73;;;11.93;;
21183;SDS011;18176;49.502;11.754;2023-05-07T06:18:37;16.53;;;12.10;;
21183;SDS011;18176;49.502;11.754;2023-05-07T06:22:38;15.93;;;11.60;;
21183;SDS011;18176;49.502;11.754;2023-05-07T06:26:40;14.43;;;11.13;;
21183;SDS011;18176;49.502;11.754;2023-05-07T06:30:45;18.57;;;11.80;;
21183;SDS011;18176;49.502;11.754;2023-05-07T06:34:47;13.63;;;10.53;;
21183;SDS011;18176;49.502;11.754;2023-05-07T06:38:48;15.17;;;10.73;;
21183;SDS011;18176;49.502;11.754;2023-05-07T06:42:48;16.25;;;11.18;;
21183;SDS011;18176;49.502;11.754;2023-05-07T06:47:08;13.75;;;10.20;;
21183;SDS011;18176;49.502;11.754;2023-05-07T06:51:12;15.98;;;11.02;;
21183;SDS011;18176;49.502;11.754;2023-05-07T06:55:13;16.40;;;10.43;;
21183;SDS011;18176;49.502;11.754;2023-05-07T06:59:13;13.57;;;10.07;;
21183;SDS011;18176;49.502;11.754;2023-05-07T07:03:19;14.32;;;10.00;;
21183;SDS011;18176;49.502;11.754;2023-05-07T07:07:20;11.95;;;9.50;;
21183;SDS011;18176;49.502;11.754;2023-05-07T07:11:20;14.85;;;9.32;;
21183;SDS011;18176;49.502;11.754;2023-05-07T07:15:21;13.10;;;9.15;;
21183;SDS011;18176;49.502;11.754;2023-05-07T07:19:26;10.52;;;8.27;;
21183;SDS011;18176;49.502;11.754;2023-05-07T07:23:28;11.50;;;8.55;;
21183;SDS011;18176;49.502;11.754;2023-05-07T07:27:28;10.52;;;7.75;;
21183;SDS011;18176;49.502;11.754;2023-05-07T07:31:29;9.88;;;8.15;;
21183;SDS011;18176;49.502;11.754;2023-05-07T07:35:33;10.23;;;8.80;;
21183;SDS011;18176;49.502;11.754;2023-05-07T07:39:35;12.52;;;8.93;;
21183;SDS011;18176;49.502;11.754;2023-05-07T07:43:38;10.65;;;8.30;;
21183;SDS011;18176;49.502;11.754;2023-05-07T07:47:39;11.93;;;9.23;;
21183;SDS011;18176;49.502;11.754;2023-05-07T07:51:43;11.82;;;8.40;;
21183;SDS011;18176;49.502;11.754;2023-05-07T07:55:45;11.10;;;8.32;;
21183;SDS011;18176;49.502;11.754;2023-05-07T07:59:49;13.45;;;8.63;;
21183;SDS011;18176;49.502;11.754;2023-05-07T08:03:50;9.88;;;8.07;;
21183;SDS011;18176;49.502;11.754;2023-05-07T08:12:38;10.07;;;8.25;;
21183;SDS011;18176;49.502;11.754;2023-05-07T08:16:39;10.07;;;8.30;;
21183;SDS011;18176;49.502;11.754;2023-05-07T08:20:40;9.45;;;8.25;;
21183;SDS011;18176;49.502;11.754;2023-05-07T08:24:44;9.15;;;8.15;;
21183;SDS011;18176;49.502;11.754;2023-05-07T08:28:47;9.50;;;7.90;;
21183;SDS011;18176;49.502;11.754;2023-05-07T08:32:48;9.27;;;7.43;;
21183;SDS011;18176;49.502;11.754;2023-05-07T08:36:48;10.77;;;7.93;;
21183;SDS011;18176;49.502;11.754;2023-05-07T08:40:52;10.05;;;8.40;;
21183;SDS011;18176;49.502;11.754;2023-05-07T08:44:56;9.85;;;8.35;;
21183;SDS011;18176;49.502;11.754;2023-05-07T08:49:04;9.38;;;8.32;;
21183;SDS011;18176;49.502;11.754;2023-05-07T08:53:04;12.02;;;9.20;;
21183;SDS011;18176;49.502;11.754;2023-05-07T09:11:14;12.50;;;8.88;;
21183;SDS011;18176;49.502;11.754;2023-05-07T09:15:34;11.35;;;9.60;;
21183;SDS011;18176;49.502;11.754;2023-05-07T09:19:55;10.90;;;9.57;;
21183;SDS011;18176;49.502;11.754;2023-05-07T09:24:16;11.95;;;10.32;;
21183;SDS011;18176;49.502;11.754;2023-05-07T09:28:41;11.60;;;9.25;;
21183;SDS011;18176;49.502;11.754;2023-05-07T09:32:44;8.60;;;7.80;;
21183;SDS011;18176;49.502;11.754;2023-05-07T09:36:50;10.25;;;9.25;;
21183;SDS011;18176;49.502;11.754;2023-05-07T09:40:57;10.82;;;9.73;;
21183;SDS011;18176;49.502;11.754;2023-05-07T09:45:28;10.80;;;9.70;;
21183;SDS011;18176;49.502;11.754;2023-05-07T09:49:29;13.48;;;10.10;;
21183;SDS011;18176;49.502;11.754;2023-05-07T09:53:37;11.15;;;9.85;;
21183;SDS011;18176;49.502;11.754;2023-05-07T09:57:40;11.25;;;10.15;;
21183;SDS011;18176;49.502;11.754;2023-05-07T10:01:47;11.63;;;8.40;;
21183;SDS011;18176;49.502;11.754;2023-05-07T10:05:49;8.48;;;7.65;;
21183;SDS011;18176;49.502;11.754;2023-05-07T10:09:51;10.88;;;9.88;;
21183;SDS011;18176;49.502;11.754;2023-05-07T10:14:05;10.23;;;9.20;;
21183;SDS011;18176;49.502;11.754;2023-05-07T10:18:12;9.45;;;8.52;;
21183;SDS011;18176;49.502;11.754;2023-05-07T10:22:18;8.95;;;8.05;;
21183;SDS011;18176;49.502;11.754;2023-05-07T10:26:20;8.70;;;7.88;;
21183;SDS011;18176;49.502;11.754;2023-05-07T10:30:29;10.48;;;7.80;;
21183;SDS011;18176;49.502;11.754;2023-05-07T10:34:49;7.93;;;7.13;;
21183;SDS011;18176;49.502;11.754;2023-05-07T10:38:55;8.57;;;7.53;;
21183;SDS011;18176;49.502;11.754;2023-05-07T10:42:56;8.65;;;7.70;;
21183;SDS011;18176;49.502;11.754;2023-05-07T10:47:15;8.05;;;6.57;;
21183;SDS011;18176;49.502;11.754;2023-05-07T10:51:23;6.90;;;6.20;;
21183;SDS011;18176;49.502;11.754;2023-05-07T10:55:31;7.10;;;6.40;;
21183;SDS011;18176;49.502;11.754;2023-05-07T10:59:44;6.50;;;5.90;;
21183;SDS011;18176;49.502;11.754;2023-05-07T11:08:56;8.70;;;6.00;;
21183;SDS011;18176;49.502;11.754;2023-05-07T11:13:42;6.22;;;5.70;;
21183;SDS011;18176;49.502;11.754;2023-05-07T11:18:14;7.78;;;5.68;;
21183;SDS011;18176;49.502;11.754;2023-05-07T11:26:58;7.18;;;5.85;;
21183;SDS011;18176;49.502;11.754;2023-05-07T11:31:00;8.90;;;6.43;;
21183;SDS011;18176;49.502;11.754;2023-05-07T11:35:02;6.90;;;6.20;;
21183;SDS011;18176;49.502;11.754;2023-05-07T11:39:02;6.03;;;5.53;;
21183;SDS011;18176;49.502;11.754;2023-05-07T11:43:12;6.15;;;5.55;;
21183;SDS011;18176;49.502;11.754;2023-05-07T11:47:17;8.25;;;5.82;;
21183;SDS011;18176;49.502;11.754;2023-05-07T11:51:18;6.88;;;6.18;;
21183;SDS011;18176;49.502;11.754;2023-05-07T11:55:20;6.65;;;6.05;;
21183;SDS011;18176;49.502;11.754;2023-05-07T11:59:24;7.65;;;6.38;;
21183;SDS011;18176;49.502;11.754;2023-05-07T12:03:24;6.85;;;5.95;;
21183;SDS011;18176;49.502;11.754;2023-05-07T12:07:32;7.88;;;6.25;;
21183;SDS011;18176;49.502;11.754;2023-05-07T12:11:33;6.35;;;5.70;;
21183;SDS011;18176;49.502;11.754;2023-05-07T12:15:38;6.05;;;5.45;;
21183;SDS011;18176;49.502;11.754;2023-05-07T12:19:39;6.50;;;5.90;;
21183;SDS011;18176;49.502;11.754;2023-05-07T12:23:42;5.82;;;5.22;;
21183;SDS011;18176;49.502;11.754;2023-05-07T12:27:44;5.85;;;5.35;;
21183;SDS011;18176;49.502;11.754;2023-05-07T12:31:54;6.13;;;5.53;;
21183;SDS011;18176;49.502;11.754;2023-05-07T12:35:56;6.53;;;6.00;;
21183;SDS011;18176;49.502;11.754;2023-05-07T12:40:03;7.10;;;5.53;;
21183;SDS011;18176;49.502;11.754;2023-05-07T12:44:05;6.43;;;5.80;;
21183;SDS011;18176;49.502;11.754;2023-05-07T12:48:08;6.75;;;6.15;;
21183;SDS011;18176;49.502;11.754;2023-05-07T12:52:10;6.70;;;6.10;;
21183;SDS011;18176;49.502;11.754;2023-05-07T12:56:11;6.38;;;5.78;;
21183;SDS011;18176;49.502;11.754;2023-05-07T13:00:12;5.65;;;5.15;;
21183;SDS011;18176;49.502;11.754;2023-05-07T13:04:17;5.45;;;4.95;;
21183;SDS011;18176;49.502;11.754;2023-05-07T13:08:27;4.88;;;4.47;;
21183;SDS011;18176;49.502;11.754;2023-05-07T13:12:30;6.13;;;5.05;;
21183;SDS011;18176;49.502;11.754;2023-05-07T13:16:30;7.13;;;5.45;;
21183;SDS011;18176;49.502;11.754;2023-05-07T13:20:33;5.70;;;5.30;;
21183;SDS011;18176;49.502;11.754;2023-05-07T13:24:33;10.68;;;4.70;;
21183;SDS011;18176;49.502;11.754;2023-05-07T13:28:34;8.70;;;7.80;;
21183;SDS011;18176;49.502;11.754;2023-05-07T13:32:34;6.45;;;4.90;;
21183;SDS011;18176;49.502;11.754;2023-05-07T13:36:37;5.38;;;4.90;;
21183;SDS011;18176;49.502;11.754;2023-05-07T13:40:38;5.03;;;4.63;;
21183;SDS011;18176;49.502;11.754;2023-05-07T13:44:38;5.60;;;4.97;;
21183;SDS011;18176;49.502;11.754;2023-05-07T13:48:40;6.60;;;4.80;;
21183;SDS011;18176;49.502;11.754;2023-05-07T13:52:44;4.68;;;4.28;;
21183;SDS011;18176;49.502;11.754;2023-05-07T13:56:47;5.30;;;4.80;;
21183;SDS011;18176;49.502;11.754;2023-05-07T14:00:47;4.90;;;4.50;;
21183;SDS011;18176;49.502;11.754;2023-05-07T14:04:50;4.85;;;4.45;;
21183;SDS011;18176;49.502;11.754;2023-05-07T14:08:53;5.32;;;4.60;;
21183;SDS011;18176;49.502;11.754;2023-05-07T14:12:54;4.50;;;4.10;;
21183;SDS011;18176;49.502;11.754;2023-05-07T14:16:55;5.28;;;4.00;;
21183;SDS011;18176;49.502;11.754;2023-05-07T14:20:55;4.10;;;3.60;;
21183;SDS011;18176;49.502;11.754;2023-05-07T14:24:59;4.43;;;4.03;;
21183;SDS011;18176;49.502;11.754;2023-05-07T14:29:03;6.85;;;3.92;;
21183;SDS011;18176;49.502;11.754;2023-05-07T14:33:03;4.28;;;3.67;;
21183;SDS011;18176;49.502;11.754;2023-05-07T14:37:03;4.30;;;3.90;;
21183;SDS011;18176;49.502;11.754;2023-05-07T14:41:06;5.95;;;3.90;;
21183;SDS011;18176;49.502;11.754;2023-05-07T14:45:07;4.55;;;3.60;;
21183;SDS011;18176;49.502;11.754;2023-05-07T14:49:09;4.15;;;3.85;;
21183;SDS011;18176;49.502;11.754;2023-05-07T14:53:13;3.78;;;3.45;;
21183;SDS011;18176;49.502;11.754;2023-05-07T14:57:16;4.15;;;3.75;;
21183;SDS011;18176;49.502;11.754;2023-05-07T15:01:16;3.53;;;3.22;;
21183;SDS011;18176;49.502;11.754;2023-05-07T15:05:17;3.95;;;3.40;;
21183;SDS011;18176;49.502;11.754;2023-05-07T15:09:17;3.50;;;3.20;;
21183;SDS011;18176;49.502;11.754;2023-05-07T15:13:20;3.95;;;3.55;;
21183;SDS011;18176;49.502;11.754;2023-05-07T15:17:22;3.30;;;3.00;;
21183;SDS011;18176;49.502;11.754;2023-05-07T15:21:22;3.50;;;3.20;;
21183;SDS011;18176;49.502;11.754;2023-05-07T15:25:23;4.65;;;3.47;;
21183;SDS011;18176;49.502;11.754;2023-05-07T15:29:26;3.75;;;3.45;;
21183;SDS011;18176;49.502;11.754;2023-05-07T15:33:28;3.80;;;3.50;;
21183;SDS011;18176;49.502;11.754;2023-05-07T15:37:30;4.43;;;4.03;;
21183;SDS011;18176;49.502;11.754;2023-05-07T15:41:30;4.50;;;4.10;;
21183;SDS011;18176;49.502;11.754;2023-05-07T15:45:34;4.75;;;4.20;;
21183;SDS011;18176;49.502;11.754;2023-05-07T15:49:39;4.70;;;4.30;;
21183;SDS011;18176;49.502;11.754;2023-05-07T15:53:44;5.57;;;4.40;;
21183;SDS011;18176;49.502;11.754;2023-05-07T15:57:46;4.90;;;4.10;;
21183;SDS011;18176;49.502;11.754;2023-05-07T16:01:48;5.78;;;4.25;;
21183;SDS011;18176;49.502;11.754;2023-05-07T16:05:49;4.40;;;4.00;;
21183;SDS011;18176;49.502;11.754;2023-05-07T16:09:49;4.43;;;4.03;;
21183;SDS011;18176;49.502;11.754;2023-05-07T16:13:49;5.68;;;3.88;;
21183;SDS011;18176;49.502;11.754;2023-05-07T16:17:52;5.80;;;4.22;;
21183;SDS011;18176;49.502;11.754;2023-05-07T16:21:53;6.60;;;4.28;;
21183;SDS011;18176;49.502;11.754;2023-05-07T16:25:54;4.95;;;4.40;;
21183;SDS011;18176;49.502;11.754;2023-05-07T16:29:54;4.85;;;3.83;;
21183;SDS011;18176;49.502;11.754;2023-05-07T16:33:57;5.00;;;3.80;;
21183;SDS011;18176;49.502;11.754;2023-05-07T16:37:58;4.60;;;4.03;;
21183;SDS011;18176;49.502;11.754;2023-05-07T16:42:05;4.57;;;4.00;;
21183;SDS011;18176;49.502;11.754;2023-05-07T16:46:09;4.35;;;3.80;;
21183;SDS011;18176;49.502;11.754;2023-05-07T16:50:12;4.90;;;3.70;;
21183;SDS011;18176;49.502;11.754;2023-05-07T16:54:13;3.95;;;3.50;;
21183;SDS011;18176;49.502;11.754;2023-05-07T16:58:14;5.45;;;3.55;;
21183;SDS011;18176;49.502;11.754;2023-05-07T17:02:14;5.63;;;3.58;;
21183;SDS011;18176;49.502;11.754;2023-05-07T17:06:17;6.13;;;3.85;;
21183;SDS011;18176;49.502;11.754;2023-05-07T17:10:20;6.78;;;3.60;;
21183;SDS011;18176;49.502;11.754;2023-05-07T17:14:21;4.60;;;3.55;;
21183;SDS011;18176;49.502;11.754;2023-05-07T17:18:25;3.60;;;3.30;;
21183;SDS011;18176;49.502;11.754;2023-05-07T17:22:28;6.75;;;3.05;;
21183;SDS011;18176;49.502;11.754;2023-05-07T17:26:32;3.80;;;3.20;;
21183;SDS011;18176;49.502;11.754;2023-05-07T17:30:43;4.10;;;3.20;;
21183;SDS011;18176;49.502;11.754;2023-05-07T17:34:43;4.60;;;3.30;;
21183;SDS011;18176;49.502;11.754;2023-05-07T17:38:50;4.07;;;3.55;;
21183;SDS011;18176;49.502;11.754;2023-05-07T17:42:50;5.60;;;3.25;;
21183;SDS011;18176;49.502;11.754;2023-05-07T17:46:55;4.38;;;3.10;;
21183;SDS011;18176;49.502;11.754;2023-05-07T17:51:00;5.95;;;3.53;;
21183;SDS011;18176;49.502;11.754;2023-05-07T17:55:18;4.00;;;3.40;;
21183;SDS011;18176;49.502;11.754;2023-05-07T17:59:21;3.75;;;3.30;;
21183;SDS011;18176;49.502;11.754;2023-05-07T18:03:33;7.13;;;3.70;;
21183;SDS011;18176;49.502;11.754;2023-05-07T18:07:42;4.15;;;3.75;;
21183;SDS011;18176;49.502;11.754;2023-05-07T18:11:45;5.55;;;3.85;;
21183;SDS011;18176;49.502;11.754;2023-05-07T18:15:52;5.50;;;3.70;;
21183;SDS011;18176;49.502;11.754;2023-05-07T18:20:03;4.20;;;3.70;;
21183;SDS011;18176;49.502;11.754;2023-05-07T18:24:16;6.00;;;3.30;;
21183;SDS011;18176;49.502;11.754;2023-05-07T18:28:36;6.20;;;3.78;;
21183;SDS011;18176;49.502;11.754;2023-05-07T18:32:48;4.68;;;4.00;;
21183;SDS011;18176;49.502;11.754;2023-05-07T18:37:02;4.90;;;3.90;;
21183;SDS011;18176;49.502;11.754;2023-05-07T18:41:02;4.50;;;3.67;;
21183;SDS011;18176;49.502;11.754;2023-05-07T18:45:14;4.75;;;4.15;;
21183;SDS011;18176;49.502;11.754;2023-05-07T18:49:29;5.28;;;3.72;;
21183;SDS011;18176;49.502;11.754;2023-05-07T18:53:30;4.68;;;3.60;;
21183;SDS011;18176;49.502;11.754;2023-05-07T18:57:35;5.65;;;3.90;;
21183;SDS011;18176;49.502;11.754;2023-05-07T19:01:38;4.22;;;3.83;;
21183;SDS011;18176;49.502;11.754;2023-05-07T19:05:39;4.20;;;3.80;;
21183;SDS011;18176;49.502;11.754;2023-05-07T19:09:51;5.63;;;3.58;;
21183;SDS011;18176;49.502;11.754;2023-05-07T19:14:02;5.50;;;3.45;;
21183;SDS011;18176;49.502;11.754;2023-05-07T19:18:11;5.47;;;3.78;;
21183;SDS011;18176;49.502;11.754;2023-05-07T19:22:17;5.30;;;4.03;;
21183;SDS011;18176;49.502;11.754;2023-05-07T19:26:25;4.43;;;3.78;;
21183;SDS011;18176;49.502;11.754;2023-05-07T19:30:26;5.25;;;4.00;;
21183;SDS011;18176;49.502;11.754;2023-05-07T19:34:32;4.20;;;3.80;;
21183;SDS011;18176;49.502;11.754;2023-05-07T19:38:33;4.82;;;3.83;;
21183;SDS011;18176;49.502;11.754;2023-05-07T19:42:43;5.47;;;4.13;;
21183;SDS011;18176;49.502;11.754;2023-05-07T19:46:53;6.18;;;4.03;;
21183;SDS011;18176;49.502;11.754;2023-05-07T19:50:59;5.70;;;3.80;;
21183;SDS011;18176;49.502;11.754;2023-05-07T19:55:01;4.80;;;4.13;;
21183;SDS011;18176;49.502;11.754;2023-05-07T19:59:11;5.32;;;3.85;;
21183;SDS011;18176;49.502;11.754;2023-05-07T20:03:19;4.72;;;4.03;;
21183;SDS011;18176;49.502;11.754;2023-05-07T20:07:25;4.90;;;4.05;;
21183;SDS011;18176;49.502;11.754;2023-05-07T20:11:28;5.35;;;4.10;;
21183;SDS011;18176;49.502;11.754;2023-05-07T20:15:36;5.78;;;4.18;;
21183;SDS011;18176;49.502;11.754;2023-05-07T20:19:36;4.45;;;4.05;;
21183;SDS011;18176;49.502;11.754;2023-05-07T20:23:39;4.60;;;4.10;;
21183;SDS011;18176;49.502;11.754;2023-05-07T20:27:40;5.20;;;4.40;;
21183;SDS011;18176;49.502;11.754;2023-05-07T20:31:45;6.73;;;4.40;;
21183;SDS011;18176;49.502;11.754;2023-05-07T20:35:46;5.50;;;4.70;;
21183;SDS011;18176;49.502;11.754;2023-05-07T20:39:54;6.10;;;4.20;;
21183;SDS011;18176;49.502;11.754;2023-05-07T20:43:54;7.27;;;4.20;;
21183;SDS011;18176;49.502;11.754;2023-05-07T20:47:58;5.93;;;4.47;;
21183;SDS011;18176;49.502;11.754;2023-05-07T20:51:59;9.23;;;4.57;;
21183;SDS011;18176;49.502;11.754;2023-05-07T20:56:06;5.60;;;4.67;;
21183;SDS011;18176;49.502;11.754;2023-05-07T21:00:07;5.60;;;4.10;;
21183;SDS011;18176;49.502;11.754;2023-05-07T21:04:11;7.43;;;5.00;;
21183;SDS011;18176;49.502;11.754;2023-05-07T21:08:13;8.10;;;5.20;;
21183;SDS011;18176;49.502;11.754;2023-05-07T21:12:19;5.63;;;4.67;;
21183;SDS011;18176;49.502;11.754;2023-05-07T21:16:20;5.30;;;4.70;;
21183;SDS011;18176;49.502;11.754;2023-05-07T21:20:23;6.03;;;4.73;;
21183;SDS011;18176;49.502;11.754;2023-05-07T21:24:26;7.33;;;5.37;;
21183;SDS011;18176;49.502;11.754;2023-05-07T21:28:31;8.87;;;5.60;;
21183;SDS011;18176;49.502;11.754;2023-05-07T21:32:32;7.50;;;6.13;;
21183;SDS011;18176;49.502;11.754;2023-05-07T21:36:34;6.50;;;5.00;;
21183;SDS011;18176;49.502;11.754;2023-05-07T21:40:37;7.57;;;5.20;;
21183;SDS011;18176;49.502;11.754;2023-05-07T21:44:40;8.00;;;5.10;;
21183;SDS011;18176;49.502;11.754;2023-05-07T21:48:40;7.63;;;5.10;;
21183;SDS011;18176;49.502;11.754;2023-05-07T21:52:41;5.90;;;5.20;;
21183;SDS011;18176;49.502;11.754;2023-05-07T21:56:42;11.70;;;5.40;;
21183;SDS011;18176;49.502;11.754;2023-05-07T22:00:48;6.13;;;5.33;;
21183;SDS011;18176;49.502;11.754;2023-05-07T22:04:48;6.53;;;5.07;;
21183;SDS011;18176;49.502;11.754;2023-05-07T22:08:48;7.40;;;5.30;;
21183;SDS011;18176;49.502;11.754;2023-05-07T22:12:49;9.17;;;5.83;;
21183;SDS011;18176;49.502;11.754;2023-05-07T22:16:52;8.73;;;5.40;;
21183;SDS011;18176;49.502;11.754;2023-05-07T22:20:52;6.63;;;5.20;;
21183;SDS011;18176;49.502;11.754;2023-05-07T22:24:53;8.13;;;5.70;;
21183;SDS011;18176;49.502;11.754;2023-05-07T22:28:53;6.43;;;5.67;;
21183;SDS011;18176;49.502;11.754;2023-05-07T22:32:56;7.07;;;6.10;;
21183;SDS011;18176;49.502;11.754;2023-05-07T22:36:56;7.90;;;5.87;;
21183;SDS011;18176;49.502;11.754;2023-05-07T22:40:57;7.23;;;6.10;;
21183;SDS011;18176;49.502;11.754;2023-05-07T22:44:58;6.63;;;5.93;;
21183;SDS011;18176;49.502;11.754;2023-05-07T22:49:01;8.20;;;5.87;;
21183;SDS011;18176;49.502;11.754;2023-05-07T22:53:01;6.60;;;5.90;;
21183;SDS011;18176;49.502;11.754;2023-05-07T22:57:02;6.87;;;5.57;;
21183;SDS011;18176;49.502;11.754;2023-05-07T23:01:02;6.97;;;5.90;;
21183;SDS011;18176;49.502;11.754;2023-05-07T23:05:12;7.77;;;5.77;;
21183;SDS011;18176;49.502;11.754;2023-05-07T23:09:13;7.53;;;6.00;;
21183;SDS011;18176;49.502;11.754;2023-05-07T23:13:13;5.87;;;4.93;;
21183;SDS011;18176;49.502;11.754;2023-05-07T23:17:15;6.30;;;5.37;;
21183;SDS011;18176;49.502;11.754;2023-05-07T23:21:18;6.20;;;5.17;;
21183;SDS011;18176;49.502;11.754;2023-05-07T23:25:18;6.20;;;5.50;;
21183;SDS011;18176;49.502;11.754;2023-05-07T23:29:19;6.23;;;5.20;;
21183;SDS011;18176;49.502;11.754;2023-05-07T23:33:19;8.37;;;5.43;;
21183;SDS011;18176;49.502;11.754;2023-05-07T23:37:23;5.97;;;5.37;;
21183;SDS011;18176;49.502;11.754;2023-05-07T23:41:23;5.90;;;5.30;;
21183;SDS011;18176;49.502;11.754;2023-05-07T23:45:23;6.30;;;4.83;;
21183;SDS011;18176;49.502;11.754;2023-05-07T23:49:24;6.47;;;5.33;;
21183;SDS011;18176;49.502;11.754;2023-05-07T23:53:27;5.73;;;5.10;;
21183;SDS011;18176;49.502;11.754;2023-05-07T23:57:27;7.17;;;5.73;;
